createdAt,value
2018-11-12T00:38:26.270Z,12.3
2018-11-12T00:39:25.094Z,12.3
2018-11-12T00:40:24.532Z,12.3
2018-11-12T00:41:23.662Z,12.3
2018-11-12T00:43:21.875Z,12.3
2018-11-12T00:45:19.770Z,12.3
2018-11-12T00:46:19.611Z,12.3
2018-11-12T00:47:18.436Z,12.3
2018-11-12T00:49:17.056Z,12.3
2018-11-12T00:50:16.399Z,12.3
2018-11-12T00:51:15.232Z,12.3
2018-11-12T00:52:14.360Z,12.3
2018-11-12T00:53:13.585Z,12.3
2018-11-12T00:54:13.026Z,12.3
2018-11-12T00:55:11.752Z,12.3
2018-11-12T00:57:10.463Z,12.3
2018-11-12T00:58:09.196Z,12.3
2018-11-12T00:59:08.575Z,12.2
2018-11-12T01:00:07.902Z,12.2
2018-11-12T01:01:09.350Z,12.2
2018-11-12T01:02:05.947Z,12.2
2018-11-12T01:05:03.235Z,12.2
2018-11-12T01:06:02.470Z,12.2
2018-11-12T01:07:01.481Z,12.3
2018-11-12T01:08:01.360Z,12.3
2018-11-12T01:09:00.091Z,12.3
2018-11-12T01:09:59.422Z,12.4
2018-11-12T01:10:58.870Z,12.4
2018-11-12T01:11:57.595Z,12.4
2018-11-12T01:12:56.816Z,12.4
2018-11-12T01:13:56.092Z,12.5
2018-11-12T01:14:55.432Z,12.6
2018-11-12T01:15:54.061Z,12.6
2018-11-12T01:16:53.462Z,12.6
2018-11-12T01:17:52.580Z,12.7
2018-11-12T01:18:51.700Z,12.7
2018-11-12T01:20:50.430Z,12.6
2018-11-12T01:21:49.163Z,12.5
2018-11-12T01:22:48.493Z,12.5
2018-11-12T01:23:47.937Z,12.5
2018-11-12T01:24:46.774Z,12.5
2018-11-12T01:25:46.213Z,12.4
2018-11-12T01:27:44.103Z,12.4
2018-11-12T01:28:43.225Z,12.4
2018-11-12T01:29:42.567Z,12.3
2018-11-12T01:30:41.898Z,12.3
2018-11-12T01:31:41.016Z,12.3
2018-11-12T01:32:40.363Z,12.3
2018-11-12T01:33:39.097Z,12.3
2018-11-12T01:35:37.929Z,12.2
2018-11-12T01:36:36.650Z,12.2
2018-11-12T01:37:35.879Z,12.2
2018-11-12T01:38:06.526Z,12.2
2018-11-12T01:39:34.431Z,12.2
2018-11-12T01:40:33.767Z,12.2
2018-11-12T01:41:32.593Z,12.2
2018-11-12T01:42:31.925Z,12.1
2018-11-12T01:44:30.178Z,12.1
2018-11-12T01:45:29.416Z,12.1
2018-11-12T01:46:28.550Z,12.1
2018-11-12T01:47:27.913Z,12.1
2018-11-12T01:48:26.738Z,12.1
2018-11-12T01:52:23.719Z,12
2018-11-12T01:55:21.210Z,11.9
2018-11-12T01:56:20.646Z,11.9
2018-11-12T01:57:19.580Z,11.9
2018-11-12T01:59:17.365Z,11.8
2018-11-12T02:00:17.212Z,11.8
2018-11-12T02:02:15.325Z,11.8
2018-11-12T02:03:14.549Z,11.7
2018-11-12T02:04:13.563Z,11.7
2018-11-12T02:05:12.893Z,11.7
2018-11-12T02:07:11.228Z,11.6
2018-11-12T02:08:10.063Z,11.6
2018-11-12T02:09:10.131Z,11.6
2018-11-12T02:10:08.580Z,11.6
2018-11-12T02:11:07.916Z,11.5
2018-11-12T02:12:06.794Z,11.5
2018-11-12T02:13:06.015Z,11.5
2018-11-12T02:15:04.125Z,11.4
2018-11-12T02:16:03.137Z,11.4
2018-11-12T02:17:02.868Z,11.4
2018-11-12T02:19:00.882Z,11.4
2018-11-12T02:21:58.541Z,11.4
2018-11-12T02:23:56.655Z,11.4
2018-11-12T02:24:56.110Z,11.4
2018-11-12T02:25:55.335Z,11.4
2018-11-12T02:26:54.454Z,11.5
2018-11-12T02:27:53.280Z,11.5
2018-11-12T02:28:52.608Z,11.5
2018-11-12T02:29:52.063Z,11.5
2018-11-12T02:33:48.549Z,11.5
2018-11-12T02:34:47.541Z,11.5
2018-11-12T02:35:46.900Z,11.6
2018-11-12T02:36:46.043Z,11.6
2018-11-12T02:37:44.874Z,11.5
2018-11-12T02:38:43.892Z,11.5
2018-11-12T02:39:43.738Z,11.6
2018-11-12T02:40:42.461Z,11.6
2018-11-12T02:42:40.813Z,11.6
2018-11-12T02:43:40.261Z,11.6
2018-11-12T02:44:39.099Z,11.6
2018-11-12T02:45:38.437Z,11.6
2018-11-12T02:46:37.769Z,11.6
2018-11-12T02:47:36.601Z,11.6
2018-11-12T02:48:35.944Z,11.6
2018-11-12T02:49:35.171Z,11.6
2018-11-12T02:50:33.899Z,11.6
2018-11-12T02:51:33.275Z,11.6
2018-11-12T02:52:32.617Z,11.6
2018-11-12T02:53:31.346Z,11.5
2018-11-12T02:54:30.796Z,11.5
2018-11-12T02:55:30.241Z,11.5
2018-11-12T02:56:29.074Z,11.5
2018-11-12T02:57:29.065Z,11.5
2018-11-12T02:57:58.844Z,11.5
2018-11-12T02:59:26.153Z,11.5
2018-11-12T03:00:25.384Z,11.5
2018-11-12T03:01:24.907Z,11.4
2018-11-12T03:02:24.372Z,11.4
2018-11-12T03:03:23.102Z,11.4
2018-11-12T03:05:21.829Z,11.4
2018-11-12T03:06:20.550Z,11.3
2018-11-12T03:07:20.174Z,11.4
2018-11-12T03:08:19.197Z,11.4
2018-11-12T03:08:49.336Z,11.4
2018-11-12T03:09:20.004Z,11.4
2018-11-12T03:09:50.773Z,11.4
2018-11-12T03:11:16.279Z,11.3
2018-11-12T03:12:15.741Z,11.3
2018-11-12T03:13:14.961Z,11.3
2018-11-12T03:14:13.901Z,11.3
2018-11-12T03:16:12.232Z,11.3
2018-11-12T03:17:11.454Z,11.3
2018-11-12T03:18:10.181Z,11.3
2018-11-12T03:19:09.440Z,11.3
2018-11-12T03:20:08.775Z,11.3
2018-11-12T03:21:08.219Z,11.3
2018-11-12T03:22:06.834Z,11.3
2018-11-12T03:23:06.186Z,11.2
2018-11-12T03:24:05.304Z,11.2
2018-11-12T03:25:04.537Z,11.2
2018-11-12T03:27:02.550Z,11.2
2018-11-12T03:28:01.904Z,11.2
2018-11-12T03:29:01.237Z,11.2
2018-11-12T03:30:00.689Z,11.1
2018-11-12T03:30:59.332Z,11.1
2018-11-12T03:31:58.453Z,11.1
2018-11-12T03:32:57.809Z,11.1
2018-11-12T03:33:57.156Z,11.1
2018-11-12T03:34:55.892Z,11.1
2018-11-12T03:35:55.234Z,11.1
2018-11-12T03:36:54.676Z,11.1
2018-11-12T03:39:52.385Z,11.1
2018-11-12T03:40:22.296Z,11.1
2018-11-12T03:40:52.851Z,11.1
2018-11-12T03:41:23.495Z,11.1
2018-11-12T03:43:48.279Z,11.2
2018-11-12T03:45:46.609Z,11.3
2018-11-12T03:46:45.729Z,11.3
2018-11-12T03:47:45.174Z,11.3
2018-11-12T03:48:44.117Z,11.4
2018-11-12T03:49:43.568Z,11.4
2018-11-12T03:50:13.501Z,11.4
2018-11-12T03:50:44.269Z,11.4
2018-11-12T03:51:14.307Z,11.4
2018-11-12T03:51:44.972Z,11.4
2018-11-12T03:52:15.620Z,11.4
2018-11-12T03:53:40.017Z,11.5
2018-11-12T03:54:39.248Z,11.6
2018-11-12T03:55:37.973Z,11.6
2018-11-12T03:56:37.317Z,11.6
2018-11-12T03:57:36.434Z,11.6
2018-11-12T03:59:34.539Z,11.6
2018-11-12T04:00:34.001Z,11.6
2018-11-12T04:01:33.346Z,11.6
2018-11-12T04:03:31.984Z,11.6
2018-11-12T04:04:30.819Z,11.6
2018-11-12T04:05:29.753Z,11.6
2018-11-12T04:07:28.076Z,11.6
2018-11-12T04:08:27.318Z,11.6
2018-11-12T04:09:26.041Z,11.6
2018-11-12T04:10:25.785Z,11.6
2018-11-12T04:11:24.505Z,11.6
2018-11-12T04:14:22.217Z,11.6
2018-11-12T04:15:20.938Z,11.6
2018-11-12T04:16:20.459Z,11.6
2018-11-12T04:17:19.690Z,11.6
2018-11-12T04:18:18.923Z,11.6
2018-11-12T04:19:18.253Z,11.6
2018-11-12T04:20:17.097Z,11.6
2018-11-12T04:21:16.444Z,11.6
2018-11-12T04:21:46.893Z,11.6
2018-11-12T04:23:14.406Z,11.5
2018-11-12T04:24:13.638Z,11.5
2018-11-12T04:25:12.892Z,11.5
2018-11-12T04:26:12.125Z,11.4
2018-11-12T04:27:11.363Z,11.4
2018-11-12T04:28:10.304Z,11.4
2018-11-12T04:29:09.635Z,11.3
2018-11-12T04:30:08.481Z,11.2
2018-11-12T04:31:07.922Z,11.2
2018-11-12T04:32:06.548Z,11.2
2018-11-12T04:32:37.199Z,11.2
2018-11-12T04:33:07.764Z,11.1
2018-11-12T04:34:05.192Z,11.1
2018-11-12T04:35:04.330Z,11
2018-11-12T04:36:03.566Z,11
2018-11-12T04:38:01.807Z,10.9
2018-11-12T04:39:01.039Z,10.9
2018-11-12T04:39:59.978Z,10.8
2018-11-12T04:40:59.316Z,10.8
2018-11-12T04:41:58.545Z,10.7
2018-11-12T04:45:55.029Z,10.6
2018-11-12T04:46:54.154Z,10.5
2018-11-12T04:47:53.608Z,10.5
2018-11-12T04:52:48.861Z,10.4
2018-11-12T04:53:48.962Z,10.3
2018-11-12T04:54:47.019Z,10.3
2018-11-12T04:56:45.858Z,10.3
2018-11-12T04:57:44.590Z,10.3
2018-11-12T04:58:43.822Z,10.3
2018-11-12T04:59:43.104Z,10.2
2018-11-12T05:00:41.834Z,10.2
2018-11-12T05:01:41.324Z,10.2
2018-11-12T05:02:40.521Z,10.2
2018-11-12T05:03:39.248Z,10.2
2018-11-12T05:04:38.699Z,10.2
2018-11-12T05:05:38.045Z,10.1
2018-11-12T05:06:36.770Z,10.1
2018-11-12T05:08:35.095Z,10.1
2018-11-12T05:10:33.324Z,10.1
2018-11-12T05:11:32.767Z,10.1
2018-11-12T05:12:31.607Z,10.1
2018-11-12T05:13:30.945Z,10.1
2018-11-12T05:15:29.267Z,10
2018-11-12T05:16:28.272Z,10
2018-11-12T05:18:26.281Z,9.9
2018-11-12T05:18:56.817Z,9.9
2018-11-12T05:19:27.038Z,9.9
2018-11-12T05:20:24.864Z,9.9
2018-11-12T05:21:24.096Z,9.9
2018-11-12T05:23:22.426Z,9.8
2018-11-12T05:26:19.307Z,9.8
2018-11-12T05:30:16.306Z,9.7
2018-11-12T05:33:13.539Z,9.7
2018-11-12T05:34:12.881Z,9.7
2018-11-12T05:35:11.820Z,9.6
2018-11-12T05:42:05.750Z,9.5
2018-11-12T05:47:01.230Z,9.5
2018-11-12T05:52:55.825Z,9.5
2018-11-12T05:56:52.923Z,9.6
2018-11-12T05:57:23.070Z,9.6
2018-11-12T08:34:33.686Z,10.9
2018-11-12T09:03:08.753Z,11.7
2018-11-12T09:08:04.407Z,12
2018-11-12T09:10:02.948Z,12.2
2018-11-12T09:11:01.924Z,12.2
2018-11-12T09:20:53.355Z,12.8
2018-11-12T09:50:28.810Z,14.6
2018-11-12T10:01:22.936Z,14.4
2018-11-12T10:02:23.440Z,14.4
2018-11-12T10:03:27.182Z,14.4
2018-11-12T10:04:21.922Z,14.4
2018-11-12T10:05:23.165Z,14.4
2018-11-12T10:06:28.598Z,14.3
2018-11-12T10:07:28.675Z,14.3
2018-11-12T10:08:30.309Z,14.3
2018-11-12T10:09:07.373Z,14.3
2018-11-12T10:09:27.816Z,14.4
2018-11-12T10:11:26.051Z,14.4
2018-11-12T10:12:33.704Z,14.4
2018-11-12T10:12:59.087Z,14.4
2018-11-12T10:13:28.858Z,14.4
2018-11-12T10:14:33.047Z,14.4
2018-11-12T10:14:59.414Z,14.4
2018-11-12T10:15:32.516Z,14.5
2018-11-12T10:16:32.379Z,14.5
2018-11-12T10:16:55.665Z,14.5
2018-11-12T10:17:31.556Z,14.5
2018-11-12T10:17:59.908Z,14.5
2018-11-12T10:23:02.192Z,14.7
2018-11-12T10:24:01.029Z,14.7
2018-11-12T10:25:59.735Z,14.7
2018-11-12T10:26:58.565Z,14.7
2018-11-12T10:28:57.291Z,14.7
2018-11-12T10:29:56.526Z,14.7
2018-11-12T10:30:27.282Z,14.7
2018-11-12T10:35:51.841Z,14.9
2018-11-12T10:36:50.461Z,14.9
2018-11-12T10:38:49.184Z,15.1
2018-11-12T10:39:49.064Z,15.1
2018-11-12T10:40:48.058Z,15.3
2018-11-12T10:41:18.305Z,15.3
2018-11-12T10:41:48.138Z,15.3
2018-11-12T10:43:45.132Z,15.5
2018-11-12T10:45:43.970Z,15.5
2018-11-12T10:58:34.366Z,15.9
2018-11-12T11:51:51.584Z,17.5
2018-11-12T12:01:44.914Z,17.7
2018-11-12T17:02:02.927Z,14.4
